Blackstone, MA (01504)

9:46 AM EST on January 31, 2015 (GMT -0500)
The North End | Change Station
CLOSE
Current Station
Personal Weather Station
Location: Woonsocket, RI
Elevation: 242 ft
Nearby Weather Stations
Active Advisory: Winter Storm Watch

Elev 242 ft 42.01 °N, 71.52 °W | Updated 6 seconds ago

Partly Cloudy
Partly Cloudy
14.5 °F
Feels Like 6 °F
N
5.4
Wind Variable Wind from NW
Gusts 5.4 mph

Today
High -- | Low -- °F
--% Chance of Precip.
Yesterday
High -- | Low -- °F
Precip. -- in
7:00 AM 4:59 PM
Waxing Gibbous, 90% visible
Pressure 29.83 in
Visibility 4.0 miles
Clouds Clear
Windchill 6 °F
Dew Point -18 °F
Humidity 21%
Rainfall 0.00 in
Snow Depth Not available.
UV 2 out of 12
Pollen .10 out of 12
Air Quality Not available.
Flu Activity Not available.
METAR KSFZ 311435Z 33018G30KT 4SM CLR M11/M21 A2983 RMK AO1

More Conditions Fewer Conditions

Pressure 29.83 in
Visibility 4.0 miles
Clouds Clear
Windchill 6 °F
Dew Point -18 °F
Humidity 21%
Rainfall 0.00 in
Snow Depth Not available.
UV 2 out of 12
Pollen .10 out of 12
Air Quality Not available.
Flu Activity Not available.
METAR KSFZ 311435Z 33018G30KT 4SM CLR M11/M21 A2983 RMK AO1

More Conditions Fewer Conditions

10-Day Weather Forecast

Almanac

Astronomy

Jan. 31, 2015 Rise Set
Actual Time
Civil Twilight
Nautical Twilight
Astronomical Twilight
Moon
Length of Visible Light
Length of Day
Tomorrow will be .
, % of the Moon is Illuminated

Today's Extremes

State Highs State Lows

Community

WunderPhotos

Upload Photos

1,792,064 photos uploaded!

WunderBlogs® & News

Nearby

Air Quality

  Air Quality AQ Index Pollutant
Not available.

Snow Depth

Station Depth Elevation

Earthquake Activity

City Distance Mag. Time & Date
Minimum magnitude displayed is 2.5.

Coastal Water Temperatures

Place Temperature

Nearby Weather Stations